createdAt,value
2022-12-08T00:00:02.599Z,100358.06
2022-12-08T00:02:29.473Z,100363.66
2022-12-08T00:05:14.981Z,100349.47
2022-12-08T00:14:16.205Z,100361.75
2022-12-08T00:16:44.347Z,100356.06
2022-12-08T00:19:14.599Z,100352.63
2022-12-08T00:22:11.772Z,100350.06
2022-12-08T00:24:53.336Z,100357.78
2022-12-08T00:27:30.177Z,100345.56
2022-12-08T00:30:12.135Z,100340.75
2022-12-08T00:32:39.600Z,100336.38
2022-12-08T00:35:15.947Z,100333.56
2022-12-08T00:38:02.006Z,100330.88
2022-12-08T00:40:52.985Z,100329.19
2022-12-08T00:43:42.217Z,100311.41
2022-12-08T00:46:25.845Z,100317.66
2022-12-08T00:48:52.804Z,100321.56
2022-12-08T00:51:25.294Z,100326.06
2022-12-08T00:53:52.001Z,100321.00
2022-12-08T00:56:22.564Z,100318.75
2022-12-08T00:58:52.326Z,100327.03
2022-12-08T01:01:23.568Z,100326.69
2022-12-08T01:03:50.573Z,100328.91
2022-12-08T01:06:17.691Z,100317.66
2022-12-08T01:09:01.097Z,100328.09
2022-12-08T01:11:27.603Z,100331.00
2022-12-08T01:13:54.390Z,100322.97
2022-12-08T01:16:25.700Z,100331.50
2022-12-08T01:18:55.424Z,100319.75
2022-12-08T01:21:22.571Z,100318.09
2022-12-08T01:23:53.748Z,100316.84
2022-12-08T01:29:23.964Z,100315.44
2022-12-08T01:31:51.639Z,100316.09
2022-12-08T01:34:21.809Z,100311.63
2022-12-08T01:36:48.649Z,100306.09
2022-12-08T01:39:19.281Z,100297.88
2022-12-08T01:41:46.667Z,100301.66
2022-12-08T01:44:16.594Z,100297.38
2022-12-08T01:46:44.503Z,100290.63
2022-12-08T01:49:14.227Z,100286.72
2022-12-08T01:51:44.159Z,100281.56
2022-12-08T01:54:16.008Z,100276.34
2022-12-08T01:56:52.597Z,100278.81
2022-12-08T01:59:19.739Z,100277.09
2022-12-08T02:01:46.713Z,100277.50
2022-12-08T02:04:13.723Z,100283.78
2022-12-08T02:06:42.089Z,100270.44
2022-12-08T02:09:11.932Z,100270.16
2022-12-08T02:11:38.665Z,100266.22
2022-12-08T02:14:08.490Z,100255.16
2022-12-08T02:16:55.214Z,100252.75
2022-12-08T02:19:35.968Z,100248.47
2022-12-08T02:22:21.617Z,100253.59
2022-12-08T02:25:01.910Z,100252.47
2022-12-08T02:27:43.192Z,100259.28
2022-12-08T02:30:15.257Z,100255.91
2022-12-08T02:32:57.139Z,100245.38
2022-12-08T02:35:28.463Z,100252.06
2022-12-08T02:37:54.845Z,100245.94
2022-12-08T02:40:24.298Z,100241.41
2022-12-08T02:42:56.687Z,100235.97
2022-12-08T02:45:28.666Z,100224.19
2022-12-08T02:47:55.322Z,100226.63
2022-12-08T02:50:21.759Z,100229.41
2022-12-08T02:52:48.602Z,100231.97
2022-12-08T02:55:20.507Z,100215.28
2022-12-08T02:58:05.908Z,100210.53
2022-12-08T03:00:39.327Z,100203.06
2022-12-08T03:03:13.511Z,100201.03
2022-12-08T03:05:45.894Z,100205.78
2022-12-08T03:08:17.281Z,100196.81
2022-12-08T03:10:46.990Z,100201.16
2022-12-08T03:13:15.753Z,100194.75
2022-12-08T03:15:43.043Z,100198.06
2022-12-08T03:18:11.253Z,100192.41
2022-12-08T03:20:38.637Z,100199.66
2022-12-08T03:23:08.407Z,100194.28
2022-12-08T03:25:37.951Z,100192.59
2022-12-08T03:28:04.973Z,100183.28
2022-12-08T03:30:32.631Z,100177.44
2022-12-08T03:33:03.385Z,100178.66
2022-12-08T03:35:31.223Z,100175.63
2022-12-08T03:38:05.468Z,100168.41
2022-12-08T03:40:31.833Z,100168.75
2022-12-08T03:42:58.266Z,100162.19
2022-12-08T03:45:24.788Z,100167.88
2022-12-08T03:47:51.288Z,100155.03
2022-12-08T03:50:17.731Z,100160.56
2022-12-08T03:52:44.181Z,100160.16
2022-12-08T03:55:10.647Z,100145.94
2022-12-08T03:57:37.010Z,100144.59
2022-12-08T04:00:05.235Z,100152.00
2022-12-08T04:02:31.754Z,100144.06
2022-12-08T04:04:58.099Z,100137.50
2022-12-08T04:07:24.509Z,100140.44
2022-12-08T04:09:50.971Z,100129.41
2022-12-08T04:12:17.286Z,100129.28
2022-12-08T04:14:43.701Z,100128.00
2022-12-08T04:17:10.100Z,100136.34
2022-12-08T04:19:36.568Z,100136.53
2022-12-08T04:22:03.047Z,100135.72
2022-12-08T04:24:29.603Z,100122.25
2022-12-08T04:26:55.979Z,100126.72
2022-12-08T04:29:22.414Z,100127.00
2022-12-08T04:31:51.391Z,100123.53
2022-12-08T04:34:17.785Z,100121.09
2022-12-08T04:36:44.144Z,100121.44
2022-12-08T04:39:10.523Z,100120.56
2022-12-08T04:41:36.923Z,100122.59
2022-12-08T04:44:03.380Z,100117.72
2022-12-08T04:46:29.767Z,100114.34
2022-12-08T04:48:56.504Z,100115.25
2022-12-08T04:51:22.893Z,100116.53
2022-12-08T04:53:49.401Z,100118.16
2022-12-08T04:56:17.012Z,100105.75
2022-12-08T04:58:43.589Z,100105.69
2022-12-08T05:01:10.146Z,100104.06
2022-12-08T05:03:36.585Z,100105.00
2022-12-08T05:06:03.798Z,100110.38
2022-12-08T05:08:30.340Z,100100.03
2022-12-08T05:11:03.829Z,100108.03
2022-12-08T05:13:30.487Z,100097.19
2022-12-08T05:16:04.153Z,100100.50
2022-12-08T05:18:30.503Z,100099.97
2022-12-08T05:20:56.986Z,100091.06
2022-12-08T05:23:23.311Z,100106.38
2022-12-08T05:25:51.556Z,100100.56
2022-12-08T05:28:40.747Z,100094.56
2022-12-08T05:31:04.343Z,100098.31
2022-12-08T05:33:30.720Z,100097.56
2022-12-08T05:35:57.122Z,100092.47
2022-12-08T05:38:23.534Z,100085.75
2022-12-08T05:40:49.956Z,100089.97
2022-12-08T05:43:16.390Z,100090.72
2022-12-08T05:45:42.845Z,100088.84
2022-12-08T05:48:09.195Z,100085.44
2022-12-08T05:50:35.640Z,100087.22
2022-12-08T05:53:01.976Z,100084.44
2022-12-08T05:55:28.383Z,100084.69
2022-12-08T05:57:54.815Z,100086.13
2022-12-08T06:00:21.414Z,100075.69
2022-12-08T06:02:48.063Z,100072.06
2022-12-08T06:05:14.596Z,100076.34
2022-12-08T06:07:41.104Z,100081.84
2022-12-08T06:10:07.791Z,100082.72
2022-12-08T06:12:34.195Z,100076.19
2022-12-08T06:15:00.522Z,100081.06
2022-12-08T06:17:26.852Z,100074.94
2022-12-08T06:19:53.184Z,100079.03
2022-12-08T06:22:19.600Z,100080.84
2022-12-08T06:24:45.999Z,100073.41
2022-12-08T06:27:12.418Z,100071.94
2022-12-08T06:29:38.780Z,100082.34
2022-12-08T06:32:05.308Z,100085.66
2022-12-08T06:34:31.785Z,100078.97
2022-12-08T06:37:01.129Z,100087.78
2022-12-08T06:39:27.520Z,100084.00
2022-12-08T06:42:12.709Z,100083.34
2022-12-08T06:44:39.438Z,100080.06
2022-12-08T06:47:05.772Z,100080.72
2022-12-08T06:49:32.160Z,100083.81
2022-12-08T06:51:58.493Z,100082.56
2022-12-08T06:54:24.973Z,100076.78
2022-12-08T06:56:51.423Z,100079.78
2022-12-08T06:59:19.538Z,100084.69
2022-12-08T07:01:46.461Z,100077.06
2022-12-08T07:04:12.942Z,100076.84
2022-12-08T07:06:39.548Z,100088.91
2022-12-08T07:09:05.938Z,100090.75
2022-12-08T07:11:32.350Z,100095.13
2022-12-08T07:13:58.808Z,100086.72
2022-12-08T07:16:25.185Z,100090.50
2022-12-08T07:18:51.668Z,100092.97
2022-12-08T07:21:18.066Z,100090.28
2022-12-08T07:23:51.526Z,100086.22
2022-12-08T07:26:23.593Z,100079.09
2022-12-08T07:28:49.905Z,100083.31
2022-12-08T07:31:17.784Z,100091.53
2022-12-08T07:33:44.274Z,100088.06
2022-12-08T07:36:10.749Z,100094.13
2022-12-08T07:38:37.114Z,100083.50
2022-12-08T07:41:03.623Z,100085.88
2022-12-08T07:43:30.037Z,100091.28
2022-12-08T07:45:56.512Z,100085.59
2022-12-08T07:48:23.004Z,100091.09
2022-12-08T07:50:49.502Z,100087.22
2022-12-08T07:53:15.806Z,100077.44
2022-12-08T07:55:42.727Z,100085.81
2022-12-08T07:58:09.135Z,100090.03
2022-12-08T08:00:35.491Z,100091.63
2022-12-08T08:03:02.659Z,100095.09
2022-12-08T08:05:29.104Z,100096.56
2022-12-08T08:07:55.522Z,100094.72
2022-12-08T08:10:21.968Z,100103.81
2022-12-08T08:12:48.494Z,100098.47
2022-12-08T08:15:15.011Z,100097.75
2022-12-08T08:17:45.612Z,100108.69
2022-12-08T08:20:12.273Z,100105.72
2022-12-08T08:22:38.705Z,100101.94
2022-12-08T08:25:05.686Z,100091.00
2022-12-08T08:27:32.095Z,100087.59
2022-12-08T08:29:58.676Z,100089.44
2022-12-08T08:32:25.351Z,100080.59
2022-12-08T08:34:52.343Z,100080.44
2022-12-08T08:37:18.943Z,100091.72
2022-12-08T08:39:45.518Z,100087.75
2022-12-08T08:42:12.152Z,100090.34
2022-12-08T08:44:39.033Z,100099.06
2022-12-08T08:47:05.748Z,100091.09
2022-12-08T08:49:32.340Z,100096.03
2022-12-08T08:51:58.723Z,100093.81
2022-12-08T08:54:25.195Z,100094.78
2022-12-08T08:56:52.638Z,100090.16
2022-12-08T08:59:19.000Z,100096.00
2022-12-08T09:01:45.479Z,100090.84
2022-12-08T09:04:14.176Z,100077.09
2022-12-08T09:06:40.776Z,100080.94
2022-12-08T09:09:07.172Z,100090.31
2022-12-08T09:11:33.706Z,100080.28
2022-12-08T09:14:00.130Z,100079.09
2022-12-08T09:16:27.066Z,100068.25
2022-12-08T09:18:53.854Z,100080.66
2022-12-08T09:21:24.071Z,100076.38
2022-12-08T09:23:51.139Z,100079.41
2022-12-08T09:26:17.638Z,100067.91
2022-12-08T09:28:46.680Z,100080.81
2022-12-08T09:31:14.385Z,100072.25
2022-12-08T09:33:40.885Z,100072.09
2022-12-08T09:36:07.562Z,100071.69
2022-12-08T09:38:34.143Z,100063.63
2022-12-08T09:41:02.575Z,100063.34
2022-12-08T09:43:31.979Z,100061.84
2022-12-08T09:45:58.632Z,100061.00
2022-12-08T09:48:29.417Z,100057.91
2022-12-08T09:50:56.821Z,100051.00
2022-12-08T09:53:43.421Z,100053.91
2022-12-08T09:56:14.366Z,100058.47
2022-12-08T09:59:21.241Z,100054.41
2022-12-08T10:01:48.252Z,100058.75
2022-12-08T10:04:14.866Z,100051.44
2022-12-08T10:07:04.518Z,100049.28
2022-12-08T10:13:06.347Z,100051.41
2022-12-08T10:15:58.483Z,100054.00
2022-12-08T10:28:47.610Z,100036.84
2022-12-08T10:31:15.346Z,100040.38
2022-12-08T10:33:42.180Z,100038.16
2022-12-08T10:36:10.357Z,100030.25
2022-12-08T10:38:50.623Z,100026.50
2022-12-08T10:41:20.974Z,100034.16
2022-12-08T10:43:49.060Z,100029.38
2022-12-08T10:46:18.538Z,100023.78
2022-12-08T10:48:49.271Z,100028.75
2022-12-08T10:51:23.096Z,100017.44
2022-12-08T10:53:49.535Z,100020.78
2022-12-08T10:56:16.303Z,100020.59
2022-12-08T10:58:46.363Z,100027.69
2022-12-08T11:01:25.873Z,100022.06
2022-12-08T11:04:03.078Z,100013.00
2022-12-08T11:06:30.815Z,100015.88
2022-12-08T11:08:57.971Z,100020.31
2022-12-08T11:11:38.990Z,100015.97
2022-12-08T11:14:11.488Z,100014.41
2022-12-08T11:16:42.445Z,100009.41
2022-12-08T11:19:13.531Z,100015.88
2022-12-08T11:21:41.775Z,100013.13
2022-12-08T11:24:14.525Z,100017.75
2022-12-08T11:26:44.161Z,100016.03
2022-12-08T11:29:12.493Z,100027.50
2022-12-08T11:31:44.049Z,100014.00
2022-12-08T11:34:19.711Z,100010.47
2022-12-08T11:36:46.979Z,100006.78
2022-12-08T11:39:14.515Z,100003.19
2022-12-08T11:41:42.941Z,100010.03
2022-12-08T11:44:28.338Z,100018.09
2022-12-08T11:47:17.830Z,100016.66
2022-12-08T11:49:44.408Z,100021.47
2022-12-08T11:52:21.373Z,100019.88
2022-12-08T11:54:53.395Z,100026.72
2022-12-08T11:57:21.913Z,100028.78
2022-12-08T11:59:49.786Z,100023.06
2022-12-08T12:02:24.154Z,100018.97
2022-12-08T12:04:54.290Z,100023.44
2022-12-08T12:07:30.318Z,100016.03
2022-12-08T12:10:03.194Z,100018.59
2022-12-08T12:12:40.047Z,100016.19
2022-12-08T12:15:15.932Z,100023.81
2022-12-08T12:17:49.044Z,100014.38
2022-12-08T12:20:21.679Z,100016.97
2022-12-08T12:22:50.635Z,100013.44
2022-12-08T12:25:19.276Z,100010.00
2022-12-08T12:27:45.877Z,100010.16
2022-12-08T12:30:20.613Z,100017.19
2022-12-08T12:32:49.326Z,100008.50
2022-12-08T12:35:24.045Z,100012.84
2022-12-08T12:37:56.506Z,100009.50
2022-12-08T12:40:25.755Z,100017.63
2022-12-08T12:42:55.312Z,100010.50
2022-12-08T12:45:25.388Z,100015.16
2022-12-08T12:48:12.310Z,100006.63
2022-12-08T12:50:38.582Z,100012.81
2022-12-08T12:53:13.732Z,100015.72
2022-12-08T12:55:46.514Z,100006.78
2022-12-08T12:58:42.724Z,99997.75
2022-12-08T13:01:12.791Z,100007.84
2022-12-08T13:03:41.268Z,100008.09
2022-12-08T13:06:14.639Z,99998.72
2022-12-08T13:08:50.076Z,99993.66
2022-12-08T13:11:16.611Z,100007.66
2022-12-08T13:14:09.316Z,100004.38
2022-12-08T13:16:37.759Z,99998.50
2022-12-08T13:19:05.710Z,100006.59
2022-12-08T13:21:36.598Z,100005.75
2022-12-08T13:24:12.996Z,100006.78
2022-12-08T13:26:46.897Z,100006.28
2022-12-08T13:29:15.573Z,100001.22
2022-12-08T13:31:49.797Z,100001.09
2022-12-08T13:34:20.218Z,100008.81
2022-12-08T13:36:52.656Z,100007.03
2022-12-08T13:39:32.522Z,100006.19
2022-12-08T13:42:02.135Z,100004.94
2022-12-08T13:45:18.469Z,100015.72
2022-12-08T13:47:39.143Z,100007.72
2022-12-08T13:58:36.369Z,100019.03
2022-12-08T14:01:11.852Z,100017.31
2022-12-08T14:04:12.790Z,100020.91
2022-12-08T14:06:38.026Z,100027.41
2022-12-08T14:09:11.541Z,100025.25
2022-12-08T14:11:39.650Z,100029.91
2022-12-08T14:14:14.303Z,100029.84
2022-12-08T14:16:41.883Z,100019.97
2022-12-08T14:19:17.122Z,100033.38
2022-12-08T14:21:58.179Z,100022.22
2022-12-08T14:24:25.501Z,100026.97
2022-12-08T14:26:53.740Z,100027.75
2022-12-08T14:29:38.932Z,100032.38
2022-12-08T14:32:23.771Z,100025.69
2022-12-08T14:35:12.454Z,100033.59
2022-12-08T14:37:43.429Z,100037.84
2022-12-08T14:40:23.114Z,100033.34
2022-12-08T14:42:54.309Z,100031.25
2022-12-08T14:45:20.950Z,100041.94
2022-12-08T14:47:48.639Z,100045.09
2022-12-08T14:50:53.904Z,100043.56
2022-12-08T14:53:20.581Z,100040.00
2022-12-08T14:55:48.187Z,100042.63
2022-12-08T14:58:19.800Z,100047.44
2022-12-08T15:00:49.479Z,100037.13
2022-12-08T15:03:17.245Z,100042.28
2022-12-08T15:05:43.955Z,100043.28
2022-12-08T15:08:13.022Z,100034.78
2022-12-08T15:10:40.124Z,100038.91
2022-12-08T15:13:09.637Z,100046.84
2022-12-08T15:15:53.398Z,100038.34
2022-12-08T15:18:21.717Z,100038.34
2022-12-08T15:20:56.877Z,100049.00
2022-12-08T15:23:29.712Z,100048.91
2022-12-08T15:25:56.387Z,100046.56
2022-12-08T15:28:29.413Z,100043.78
2022-12-08T15:30:56.693Z,100045.72
2022-12-08T15:33:23.172Z,100056.13
2022-12-08T15:35:50.207Z,100060.97
2022-12-08T15:38:24.754Z,100068.31
2022-12-08T15:40:52.061Z,100060.56
2022-12-08T15:43:20.128Z,100073.28
2022-12-08T15:45:57.953Z,100062.53
2022-12-08T15:48:28.523Z,100065.16
2022-12-08T15:50:56.195Z,100060.34
2022-12-08T15:53:22.952Z,100057.50
2022-12-08T15:56:25.188Z,100059.50
2022-12-08T15:58:54.716Z,100069.50
2022-12-08T16:01:22.535Z,100070.78
2022-12-08T16:09:31.452Z,100068.88
2022-12-08T16:12:16.900Z,100065.91
2022-12-08T16:15:49.634Z,100080.06
2022-12-08T16:17:48.502Z,100086.78
2022-12-08T16:20:16.845Z,100085.59
2022-12-08T16:23:13.432Z,100084.47
2022-12-08T16:25:46.005Z,100093.25
2022-12-08T16:28:52.039Z,100098.63
2022-12-08T16:31:03.150Z,100092.19
2022-12-08T16:33:29.514Z,100089.06
2022-12-08T16:35:55.922Z,100097.34
2022-12-08T16:38:22.285Z,100098.78
2022-12-08T16:41:07.471Z,100092.78
2022-12-08T16:43:34.177Z,100099.31
2022-12-08T16:46:01.286Z,100096.19
2022-12-08T16:48:27.673Z,100105.53
2022-12-08T16:50:54.281Z,100092.97
2022-12-08T16:53:20.956Z,100086.41
2022-12-08T16:55:48.241Z,100088.09
2022-12-08T16:58:15.176Z,100092.78
2022-12-08T17:00:41.608Z,100092.78
2022-12-08T17:03:08.674Z,100093.66
2022-12-08T17:05:35.269Z,100098.84
2022-12-08T17:08:01.723Z,100093.03
2022-12-08T17:10:34.426Z,100103.28
2022-12-08T17:13:01.626Z,100099.38
2022-12-08T17:15:27.922Z,100105.53
2022-12-08T17:17:54.498Z,100107.59
2022-12-08T17:20:22.849Z,100104.63
2022-12-08T17:22:49.818Z,100103.44
2022-12-08T17:25:16.276Z,100110.97
2022-12-08T17:27:42.688Z,100111.41
2022-12-08T17:30:11.526Z,100113.84
2022-12-08T17:32:38.318Z,100115.63
2022-12-08T17:35:05.195Z,100121.59
2022-12-08T17:37:31.845Z,100119.63
2022-12-08T17:39:58.348Z,100116.13
2022-12-08T17:42:27.218Z,100118.75
2022-12-08T17:44:53.946Z,100115.31
2022-12-08T17:47:20.612Z,100124.03
2022-12-08T17:49:47.006Z,100120.28
2022-12-08T17:52:13.375Z,100123.22
2022-12-08T17:54:39.763Z,100133.50
2022-12-08T17:57:06.128Z,100118.88
2022-12-08T17:59:32.893Z,100129.69
2022-12-08T18:01:59.518Z,100132.94
2022-12-08T18:04:26.638Z,100126.59
2022-12-08T18:06:53.026Z,100123.09
2022-12-08T18:09:19.634Z,100124.34
2022-12-08T18:11:46.355Z,100120.34
2022-12-08T18:14:14.300Z,100120.13
2022-12-08T18:16:42.163Z,100126.78
2022-12-08T18:19:09.377Z,100120.81
2022-12-08T18:21:35.758Z,100135.69
2022-12-08T18:24:02.356Z,100124.69
2022-12-08T18:26:29.105Z,100126.94
2022-12-08T18:28:55.556Z,100124.75
2022-12-08T18:31:23.094Z,100134.47
2022-12-08T18:33:50.012Z,100136.88
2022-12-08T18:36:17.701Z,100143.28
2022-12-08T18:38:44.565Z,100142.59
2022-12-08T18:41:12.473Z,100149.13
2022-12-08T18:43:39.336Z,100146.22
2022-12-08T18:46:13.311Z,100148.50
2022-12-08T18:48:41.236Z,100135.28
2022-12-08T18:51:13.935Z,100146.03
2022-12-08T18:53:40.541Z,100143.00
2022-12-08T18:56:07.482Z,100156.97
2022-12-08T18:58:34.131Z,100150.41
2022-12-08T19:01:00.549Z,100146.50
2022-12-08T19:03:27.003Z,100157.59
2022-12-08T19:06:06.302Z,100167.72
2022-12-08T19:08:33.103Z,100173.44
2022-12-08T19:10:59.855Z,100166.47
2022-12-08T19:13:27.307Z,100167.50
2022-12-08T19:15:53.973Z,100169.31
2022-12-08T19:18:20.428Z,100172.69
2022-12-08T19:20:46.738Z,100179.50
2022-12-08T19:23:13.695Z,100180.41
2022-12-08T19:25:40.219Z,100183.13
2022-12-08T19:28:08.902Z,100179.59
2022-12-08T19:30:39.874Z,100188.31
2022-12-08T19:33:06.444Z,100189.50
2022-12-08T19:35:32.998Z,100189.97
2022-12-08T19:37:59.689Z,100191.41
2022-12-08T19:40:47.363Z,100197.72
2022-12-08T19:43:38.948Z,100185.38
2022-12-08T19:46:05.731Z,100197.09
2022-12-08T19:48:32.296Z,100188.34
2022-12-08T19:50:58.772Z,100190.97
2022-12-08T19:53:25.354Z,100194.28
2022-12-08T19:55:51.906Z,100196.41
2022-12-08T19:58:19.495Z,100201.22
2022-12-08T20:00:46.091Z,100196.13
2022-12-08T20:03:17.054Z,100209.06
2022-12-08T20:05:44.652Z,100200.31
2022-12-08T20:08:11.248Z,100211.81
2022-12-08T20:10:39.218Z,100207.78
2022-12-08T20:13:24.835Z,100206.00
2022-12-08T20:15:54.300Z,100206.53
2022-12-08T20:18:25.625Z,100193.94
2022-12-08T20:20:52.356Z,100200.56
2022-12-08T20:23:19.029Z,100207.59
2022-12-08T20:25:48.169Z,100201.00
2022-12-08T20:28:14.867Z,100203.78
2022-12-08T20:30:41.974Z,100208.53
2022-12-08T20:33:12.770Z,100208.72
2022-12-08T20:35:59.083Z,100208.34
2022-12-08T20:39:03.752Z,100213.34
2022-12-08T20:41:37.648Z,100217.31
2022-12-08T20:44:10.007Z,100219.56
2022-12-08T20:46:55.937Z,100217.59
2022-12-08T20:49:34.611Z,100222.31
2022-12-08T20:52:01.742Z,100222.41
2022-12-08T20:54:28.451Z,100231.31
2022-12-08T20:56:55.017Z,100237.84
2022-12-08T20:59:21.657Z,100232.00
2022-12-08T21:01:51.363Z,100234.38
2022-12-08T21:04:18.365Z,100229.66
2022-12-08T21:06:48.080Z,100232.63
2022-12-08T21:09:16.849Z,100244.06
2022-12-08T21:11:43.650Z,100242.75
2022-12-08T21:14:10.531Z,100243.84
2022-12-08T21:16:37.478Z,100252.66
2022-12-08T21:19:04.397Z,100247.72
2022-12-08T21:21:34.328Z,100251.13
2022-12-08T21:24:01.458Z,100260.59
2022-12-08T21:26:28.143Z,100262.00
2022-12-08T21:28:55.698Z,100266.06
2022-12-08T21:31:22.869Z,100258.72
2022-12-08T21:33:49.657Z,100261.31
2022-12-08T21:36:17.737Z,100262.00
2022-12-08T21:38:44.730Z,100264.50
2022-12-08T21:41:14.930Z,100267.38
2022-12-08T21:44:06.996Z,100272.03
2022-12-08T21:46:39.016Z,100265.09
2022-12-08T21:49:09.310Z,100263.31
2022-12-08T21:51:38.023Z,100254.88
2022-12-08T21:54:05.125Z,100255.38
2022-12-08T21:56:31.942Z,100262.72
2022-12-08T21:58:58.939Z,100267.25
2022-12-08T22:01:25.695Z,100269.13
2022-12-08T22:03:52.400Z,100263.06
2022-12-08T22:06:19.040Z,100267.94
2022-12-08T22:08:45.790Z,100271.56
2022-12-08T22:11:12.556Z,100268.69
2022-12-08T22:13:40.134Z,100268.47
2022-12-08T22:16:08.555Z,100266.59
2022-12-08T22:18:35.582Z,100267.44
2022-12-08T22:21:02.953Z,100261.88
2022-12-08T22:23:29.634Z,100275.16
2022-12-08T22:25:57.590Z,100266.47
2022-12-08T22:28:24.327Z,100265.28
2022-12-08T22:30:51.015Z,100253.88
2022-12-08T22:33:17.548Z,100257.41
2022-12-08T22:35:44.093Z,100260.72
2022-12-08T22:38:10.598Z,100264.25
2022-12-08T22:40:39.754Z,100274.03
2022-12-08T22:43:06.200Z,100268.16
2022-12-08T22:45:32.736Z,100266.00
2022-12-08T22:48:12.029Z,100259.84
2022-12-08T22:50:39.099Z,100260.69
2022-12-08T22:53:05.858Z,100260.28
2022-12-08T22:55:32.772Z,100265.03
2022-12-08T22:57:59.362Z,100264.06
2022-12-08T23:00:25.747Z,100253.56
2022-12-08T23:02:52.202Z,100255.91
2022-12-08T23:05:18.884Z,100260.84
2022-12-08T23:07:45.376Z,100261.03
2022-12-08T23:10:12.097Z,100257.16
2022-12-08T23:12:38.679Z,100250.22
2022-12-08T23:15:05.392Z,100254.22
2022-12-08T23:17:31.959Z,100254.75
2022-12-08T23:19:58.360Z,100259.09
2022-12-08T23:22:24.675Z,100261.00
2022-12-08T23:24:51.106Z,100253.00
2022-12-08T23:27:17.504Z,100262.75
2022-12-08T23:29:43.878Z,100261.28
2022-12-08T23:32:10.605Z,100257.97
2022-12-08T23:34:37.003Z,100266.56
2022-12-08T23:37:03.617Z,100262.91
2022-12-08T23:39:30.119Z,100254.91
2022-12-08T23:41:56.820Z,100255.19
2022-12-08T23:44:23.386Z,100263.63
2022-12-08T23:46:49.861Z,100258.16
2022-12-08T23:49:16.514Z,100266.44
2022-12-08T23:51:42.929Z,100264.38
2022-12-08T23:54:09.331Z,100267.69
2022-12-08T23:56:35.865Z,100265.88
2022-12-08T23:59:02.389Z,100268.31
